createdAt,value
2023-01-29T00:01:44.056Z,15.57
2023-01-29T00:04:10.723Z,15.65
2023-01-29T00:06:37.265Z,15.38
2023-01-29T00:09:03.900Z,14.23
2023-01-29T00:11:31.847Z,15.40
2023-01-29T00:13:58.644Z,13.80
2023-01-29T00:16:25.220Z,15.98
2023-01-29T00:18:51.932Z,15.10
2023-01-29T00:21:20.444Z,14.75
2023-01-29T00:23:47.109Z,14.52
2023-01-29T00:26:14.345Z,15.45
2023-01-29T00:28:44.358Z,14.98
2023-01-29T00:31:19.260Z,15.48
2023-01-29T00:33:46.053Z,14.68
2023-01-29T00:36:14.690Z,14.88
2023-01-29T00:38:41.334Z,15.32
2023-01-29T00:41:27.020Z,14.32
2023-01-29T00:44:12.720Z,14.43
2023-01-29T00:46:39.449Z,15.43
2023-01-29T00:49:06.761Z,15.20
2023-01-29T00:51:33.297Z,15.18
2023-01-29T00:54:02.603Z,15.65
2023-01-29T00:56:30.255Z,14.77
2023-01-29T00:58:57.137Z,14.88
2023-01-29T01:01:42.467Z,15.57
2023-01-29T01:04:12.021Z,15.00
2023-01-29T01:06:39.627Z,15.13
2023-01-29T01:09:25.787Z,15.40
2023-01-29T01:11:52.654Z,14.93
2023-01-29T01:14:20.454Z,14.82
2023-01-29T01:16:48.125Z,13.90
2023-01-29T01:19:16.045Z,15.93
2023-01-29T01:21:45.423Z,15.80
2023-01-29T01:24:12.878Z,15.05
2023-01-29T01:26:39.905Z,14.40
2023-01-29T01:29:06.613Z,14.52
2023-01-29T01:31:33.195Z,15.50
2023-01-29T01:33:59.835Z,15.70
2023-01-29T01:36:26.360Z,15.57
2023-01-29T01:38:54.160Z,15.95
2023-01-29T01:41:21.916Z,16.88
2023-01-29T01:44:00.122Z,14.25
2023-01-29T01:46:32.010Z,15.35
2023-01-29T01:49:02.782Z,14.55
2023-01-29T01:51:31.912Z,15.73
2023-01-29T01:54:03.487Z,14.70
2023-01-29T01:56:38.425Z,15.77
2023-01-29T01:59:08.057Z,14.30
2023-01-29T02:01:34.643Z,14.98
2023-01-29T02:04:28.987Z,14.40
2023-01-29T02:10:06.416Z,15.50
2023-01-29T02:12:33.074Z,14.30
2023-01-29T02:14:59.828Z,15.40
2023-01-29T02:17:26.534Z,14.13
2023-01-29T02:20:12.271Z,14.68
2023-01-29T02:22:56.009Z,15.52
2023-01-29T02:25:58.425Z,15.48
2023-01-29T02:28:54.419Z,16.13
2023-01-29T02:31:41.668Z,13.10
2023-01-29T02:34:53.011Z,14.18
2023-01-29T02:37:23.506Z,14.30
2023-01-29T02:40:09.266Z,14.68
2023-01-29T02:42:47.510Z,15.68
2023-01-29T02:45:18.588Z,14.43
2023-01-29T02:48:05.445Z,14.75
2023-01-29T02:50:42.104Z,14.65
2023-01-29T02:53:46.397Z,14.52
2023-01-29T02:56:20.856Z,15.20
2023-01-29T02:59:03.540Z,14.88
2023-01-29T03:01:33.353Z,15.45
2023-01-29T03:04:04.539Z,15.20
2023-01-29T03:06:35.524Z,14.63
2023-01-29T03:09:11.213Z,15.55
2023-01-29T03:11:41.484Z,15.05
2023-01-29T03:14:13.343Z,15.35
2023-01-29T03:16:45.063Z,15.02
2023-01-29T03:19:36.239Z,16.05
2023-01-29T03:22:10.004Z,14.93
2023-01-29T03:25:05.525Z,15.52
2023-01-29T03:27:56.061Z,16.17
2023-01-29T03:30:44.604Z,16.35
2023-01-29T03:36:02.572Z,15.90
2023-01-29T03:38:32.153Z,16.00
2023-01-29T03:41:10.148Z,15.65
2023-01-29T03:44:10.644Z,16.85
2023-01-29T03:47:20.394Z,17.05
2023-01-29T03:50:02.942Z,16.45
2023-01-29T03:52:43.006Z,16.73
2023-01-29T03:55:17.202Z,17.15
2023-01-29T03:57:57.218Z,16.98
2023-01-29T04:00:29.125Z,17.08
2023-01-29T04:03:22.020Z,17.75
2023-01-29T04:06:05.439Z,17.40
2023-01-29T04:08:48.238Z,18.85
2023-01-29T04:11:18.907Z,18.77
2023-01-29T04:13:46.273Z,18.80
2023-01-29T04:16:21.814Z,18.50
2023-01-29T04:19:09.028Z,19.08
2023-01-29T04:21:39.829Z,18.80
2023-01-29T04:24:07.258Z,19.27
2023-01-29T04:26:42.983Z,18.65
2023-01-29T04:29:24.931Z,18.83
2023-01-29T04:32:10.895Z,18.85
2023-01-29T04:34:49.164Z,19.85
2023-01-29T04:37:29.015Z,19.15
2023-01-29T04:40:15.490Z,20.05
2023-01-29T04:42:53.245Z,20.02
2023-01-29T04:45:33.310Z,18.08
2023-01-29T04:48:22.857Z,19.92
2023-01-29T04:50:55.528Z,21.38
2023-01-29T04:53:28.918Z,20.95
2023-01-29T04:55:59.459Z,20.92
2023-01-29T04:58:26.911Z,20.77
2023-01-29T05:00:54.543Z,20.52
2023-01-29T05:03:23.847Z,21.55
2023-01-29T05:05:50.997Z,21.45
2023-01-29T05:08:20.765Z,22.27
2023-01-29T05:10:48.728Z,22.35
2023-01-29T05:13:16.703Z,21.42
2023-01-29T05:15:56.667Z,21.38
2023-01-29T05:18:23.406Z,22.10
2023-01-29T05:20:50.349Z,22.10
2023-01-29T05:23:18.440Z,22.17
2023-01-29T05:25:45.600Z,21.63
2023-01-29T05:28:16.548Z,22.95
2023-01-29T05:30:50.614Z,23.08
2023-01-29T05:33:19.919Z,23.20
2023-01-29T05:35:47.064Z,22.98
2023-01-29T05:38:13.883Z,21.63
2023-01-29T05:40:40.589Z,23.38
2023-01-29T05:43:17.877Z,22.10
2023-01-29T05:45:52.658Z,22.35
2023-01-29T05:48:19.251Z,21.65
2023-01-29T05:50:45.768Z,21.50
2023-01-29T05:53:12.308Z,22.05
2023-01-29T05:55:38.869Z,22.48
2023-01-29T05:58:06.178Z,21.05
2023-01-29T06:00:32.811Z,21.88
2023-01-29T06:02:59.976Z,22.55
2023-01-29T06:05:26.603Z,23.45
2023-01-29T06:07:53.165Z,23.35
2023-01-29T06:10:20.126Z,22.48
2023-01-29T06:12:46.929Z,22.42
2023-01-29T06:15:15.514Z,22.30
2023-01-29T06:17:42.629Z,22.00
2023-01-29T06:20:10.034Z,22.92
2023-01-29T06:22:36.571Z,22.30
2023-01-29T06:25:03.771Z,21.77
2023-01-29T06:27:30.351Z,22.50
2023-01-29T06:29:56.980Z,22.33
2023-01-29T06:32:23.650Z,23.23
2023-01-29T06:34:50.261Z,22.33
2023-01-29T06:37:16.781Z,23.85
2023-01-29T06:39:43.416Z,22.77
2023-01-29T06:42:11.164Z,21.10
2023-01-29T06:44:37.704Z,19.58
2023-01-29T06:47:04.291Z,21.55
2023-01-29T06:49:30.937Z,21.55
2023-01-29T06:51:57.523Z,20.38
2023-01-29T06:54:24.169Z,20.63
2023-01-29T06:56:51.752Z,20.15
2023-01-29T06:59:18.391Z,20.17
2023-01-29T07:01:45.094Z,20.95
2023-01-29T07:04:11.726Z,20.17
2023-01-29T07:06:38.352Z,20.13
2023-01-29T07:09:05.099Z,20.30
2023-01-29T07:11:32.272Z,21.70
2023-01-29T07:13:58.861Z,21.00
2023-01-29T07:16:26.355Z,19.80
2023-01-29T07:18:53.303Z,20.75
2023-01-29T07:21:19.993Z,19.45
2023-01-29T07:23:46.606Z,20.13
2023-01-29T07:26:13.197Z,20.52
2023-01-29T07:28:40.667Z,14.23
2023-01-29T07:31:07.839Z,14.15
2023-01-29T07:33:34.607Z,13.82
2023-01-29T07:36:01.172Z,13.10
2023-01-29T07:38:27.838Z,12.73
2023-01-29T07:40:54.486Z,14.40
2023-01-29T07:43:21.082Z,14.52
2023-01-29T07:45:47.747Z,13.98
2023-01-29T07:48:14.352Z,13.63
2023-01-29T07:50:41.177Z,14.15
2023-01-29T07:53:07.805Z,14.27
2023-01-29T07:55:34.513Z,13.48
2023-01-29T07:58:02.980Z,14.90
2023-01-29T08:00:31.327Z,14.05
2023-01-29T08:03:13.641Z,14.43
2023-01-29T08:05:40.203Z,14.73
2023-01-29T08:08:07.890Z,14.15
2023-01-29T08:10:39.029Z,13.25
2023-01-29T08:13:06.616Z,12.93
2023-01-29T08:15:33.893Z,13.35
2023-01-29T08:18:03.838Z,13.63
2023-01-29T08:20:30.686Z,14.02
2023-01-29T08:23:06.200Z,13.50
2023-01-29T08:25:33.227Z,14.45
2023-01-29T08:28:00.521Z,13.63
2023-01-29T08:30:29.183Z,13.73
2023-01-29T08:32:55.706Z,12.90
2023-01-29T08:35:22.410Z,13.55
2023-01-29T08:38:00.123Z,13.88
2023-01-29T08:40:28.623Z,15.52
2023-01-29T08:43:03.534Z,13.75
2023-01-29T08:45:33.699Z,12.93
2023-01-29T08:48:00.281Z,15.05
2023-01-29T08:50:27.263Z,13.73
2023-01-29T08:52:57.890Z,13.48
2023-01-29T08:55:24.509Z,13.40
2023-01-29T08:57:51.110Z,12.50
2023-01-29T09:00:18.459Z,12.73
2023-01-29T09:02:45.324Z,12.77
2023-01-29T09:05:11.931Z,12.55
2023-01-29T09:07:38.482Z,13.75
2023-01-29T09:10:05.460Z,12.45
2023-01-29T09:12:32.161Z,12.82
2023-01-29T09:14:58.820Z,14.38
2023-01-29T09:17:25.540Z,13.48
2023-01-29T09:19:53.242Z,14.02
2023-01-29T09:22:20.331Z,13.23
2023-01-29T09:24:46.896Z,12.82
2023-01-29T09:27:13.444Z,12.38
2023-01-29T09:29:40.049Z,13.10
2023-01-29T09:32:07.156Z,12.93
2023-01-29T09:34:35.290Z,13.25
2023-01-29T09:37:01.922Z,13.40
2023-01-29T09:39:28.554Z,13.45
2023-01-29T09:42:15.678Z,12.57
2023-01-29T09:44:54.439Z,12.45
2023-01-29T09:47:21.764Z,13.65
2023-01-29T09:49:53.516Z,12.35
2023-01-29T09:52:28.411Z,13.65
2023-01-29T09:55:04.733Z,13.45
2023-01-29T09:57:51.113Z,13.55
2023-01-29T10:00:25.464Z,14.48
2023-01-29T10:03:30.695Z,13.15
2023-01-29T10:06:23.206Z,13.55
2023-01-29T10:09:03.808Z,12.90
2023-01-29T10:11:59.737Z,14.23
2023-01-29T10:14:41.644Z,12.93
2023-01-29T10:17:36.219Z,13.10
2023-01-29T10:20:30.578Z,13.25
2023-01-29T10:25:40.184Z,12.07
2023-01-29T10:28:28.209Z,13.20
2023-01-29T10:30:58.517Z,13.32
2023-01-29T10:33:48.831Z,14.88
2023-01-29T10:36:26.832Z,14.45
2023-01-29T10:38:53.531Z,13.25
2023-01-29T10:41:20.032Z,14.93
2023-01-29T10:44:01.604Z,14.00
2023-01-29T10:46:47.207Z,12.55
2023-01-29T10:49:27.285Z,13.73
2023-01-29T10:52:12.941Z,14.07
2023-01-29T10:55:01.564Z,13.25
2023-01-29T10:57:53.265Z,14.13
2023-01-29T11:00:22.933Z,15.00
2023-01-29T11:02:50.906Z,13.48
2023-01-29T11:05:26.210Z,14.30
2023-01-29T11:08:07.329Z,12.80
2023-01-29T11:10:41.260Z,13.07
2023-01-29T11:13:12.554Z,14.77
2023-01-29T11:15:39.225Z,15.32
2023-01-29T11:18:13.717Z,14.15
2023-01-29T11:20:41.807Z,14.70
2023-01-29T11:23:25.063Z,15.60
2023-01-29T11:25:55.991Z,15.00
2023-01-29T11:28:49.241Z,14.43
2023-01-29T11:31:27.292Z,14.87
2023-01-29T11:34:03.064Z,16.35
2023-01-29T11:36:38.307Z,15.70
2023-01-29T11:39:23.100Z,14.95
2023-01-29T11:41:53.422Z,13.55
2023-01-29T11:44:22.428Z,16.23
2023-01-29T11:46:49.752Z,16.40
2023-01-29T11:49:49.615Z,15.38
2023-01-29T11:52:19.219Z,15.35
2023-01-29T11:54:45.730Z,16.02
2023-01-29T11:57:26.490Z,15.20
2023-01-29T11:59:54.362Z,15.48
2023-01-29T12:02:26.648Z,16.30
2023-01-29T12:04:55.680Z,16.40
2023-01-29T12:07:22.355Z,17.42
2023-01-29T12:09:54.535Z,15.80
2023-01-29T12:12:40.139Z,15.98
2023-01-29T12:15:19.630Z,15.65
2023-01-29T12:17:52.558Z,15.85
2023-01-29T12:20:24.269Z,15.77
2023-01-29T12:22:58.170Z,16.65
2023-01-29T12:25:36.881Z,14.98
2023-01-29T12:28:14.931Z,14.30
2023-01-29T12:30:50.746Z,15.30
2023-01-29T12:33:39.683Z,15.93
2023-01-29T12:36:17.379Z,15.20
2023-01-29T12:38:44.972Z,14.80
2023-01-29T12:41:33.787Z,15.40
2023-01-29T12:44:12.061Z,15.05
2023-01-29T12:46:42.894Z,14.43
2023-01-29T12:49:15.999Z,14.48
2023-01-29T12:52:19.312Z,14.50
2023-01-29T12:54:54.953Z,14.38
2023-01-29T12:57:47.957Z,15.15
2023-01-29T13:00:23.208Z,15.38
2023-01-29T13:03:17.522Z,13.65
2023-01-29T13:05:51.479Z,13.48
2023-01-29T13:08:23.639Z,14.15
2023-01-29T13:10:52.644Z,15.50
2023-01-29T13:13:39.029Z,14.77
2023-01-29T13:16:10.922Z,14.40
2023-01-29T13:18:42.443Z,13.63
2023-01-29T13:21:15.559Z,14.73
2023-01-29T13:23:47.000Z,13.73
2023-01-29T13:26:17.809Z,13.73
2023-01-29T13:28:45.173Z,13.68
2023-01-29T13:31:32.691Z,13.90
2023-01-29T13:34:04.921Z,15.05
2023-01-29T13:36:32.116Z,14.48
2023-01-29T13:39:03.016Z,14.40
2023-01-29T13:41:33.492Z,15.80
2023-01-29T13:44:00.126Z,15.48
2023-01-29T13:46:27.054Z,15.05
2023-01-29T13:48:55.280Z,14.35
2023-01-29T13:51:22.977Z,15.13
2023-01-29T13:53:54.956Z,14.30
2023-01-29T13:56:42.108Z,16.02
2023-01-29T13:59:21.803Z,14.65
2023-01-29T14:01:50.649Z,16.20
2023-01-29T14:04:25.542Z,14.75
2023-01-29T14:06:56.783Z,16.38
2023-01-29T14:09:38.726Z,15.90
2023-01-29T14:12:25.316Z,16.40
2023-01-29T14:15:02.879Z,15.75
2023-01-29T14:17:29.763Z,16.08
2023-01-29T14:20:16.610Z,17.45
2023-01-29T14:22:43.217Z,22.33
2023-01-29T14:25:17.599Z,17.95
2023-01-29T14:27:48.646Z,17.15
2023-01-29T14:30:19.086Z,15.77
2023-01-29T14:32:49.966Z,17.35
2023-01-29T14:35:20.115Z,16.77
2023-01-29T14:37:52.705Z,16.77
2023-01-29T14:40:19.249Z,17.25
2023-01-29T14:43:06.988Z,17.63
2023-01-29T14:45:38.349Z,16.48
2023-01-29T14:48:11.256Z,18.20
2023-01-29T14:50:41.199Z,19.92
2023-01-29T14:53:21.182Z,18.83
2023-01-29T14:55:54.172Z,18.52
2023-01-29T14:58:36.690Z,17.77
2023-01-29T15:01:06.027Z,17.92
2023-01-29T15:03:40.119Z,18.50
2023-01-29T15:06:08.328Z,23.27
2023-01-29T15:08:45.877Z,37.85
2023-01-29T15:11:33.916Z,38.55
2023-01-29T15:14:16.695Z,19.88
2023-01-29T15:17:18.650Z,20.85
2023-01-29T15:19:50.798Z,18.52
2023-01-29T15:22:22.125Z,19.08
2023-01-29T15:25:04.127Z,18.73
2023-01-29T15:27:30.939Z,18.45
2023-01-29T15:30:00.439Z,19.15
2023-01-29T15:32:37.634Z,18.70
2023-01-29T15:35:17.288Z,19.80
2023-01-29T15:37:44.079Z,20.30
2023-01-29T15:40:16.538Z,19.42
2023-01-29T15:42:46.705Z,19.00
2023-01-29T15:45:30.918Z,18.73
2023-01-29T15:48:04.982Z,19.48
2023-01-29T15:50:33.305Z,17.73
2023-01-29T15:53:03.668Z,18.52
2023-01-29T15:55:30.639Z,18.80
2023-01-29T15:57:57.651Z,18.63
2023-01-29T16:00:27.670Z,19.17
2023-01-29T16:02:55.433Z,20.65
2023-01-29T16:05:27.625Z,19.63
2023-01-29T16:07:55.619Z,19.25
2023-01-29T16:10:27.627Z,18.10
2023-01-29T16:12:54.414Z,19.77
2023-01-29T16:15:28.158Z,18.77
2023-01-29T16:20:38.063Z,18.63
2023-01-29T16:23:05.393Z,18.80
2023-01-29T16:25:32.959Z,18.02
2023-01-29T16:28:03.851Z,29.67
2023-01-29T16:30:30.463Z,31.30
2023-01-29T16:33:08.360Z,31.23
2023-01-29T16:35:35.390Z,32.10
2023-01-29T16:38:06.072Z,32.95
2023-01-29T16:40:35.424Z,32.22
2023-01-29T16:43:17.267Z,32.53
2023-01-29T16:46:02.323Z,32.58
2023-01-29T16:48:34.319Z,32.55
2023-01-29T16:51:14.595Z,30.98
2023-01-29T16:54:13.550Z,31.95
2023-01-29T16:56:40.348Z,32.80
2023-01-29T16:59:07.028Z,34.58
2023-01-29T17:01:35.769Z,33.67
2023-01-29T17:04:13.811Z,32.85
2023-01-29T17:06:42.951Z,32.83
2023-01-29T17:09:22.571Z,33.33
2023-01-29T17:11:55.909Z,32.13
2023-01-29T17:14:24.418Z,32.38
2023-01-29T17:16:54.980Z,36.13
2023-01-29T17:19:23.687Z,88.65
2023-01-29T17:21:50.369Z,38.13
2023-01-29T17:24:16.987Z,94.35
2023-01-29T17:26:43.860Z,40.00
2023-01-29T17:29:15.588Z,39.65
2023-01-29T17:31:43.271Z,32.55
2023-01-29T17:34:14.707Z,35.67
2023-01-29T17:36:42.214Z,43.47
2023-01-29T17:39:15.260Z,35.72
2023-01-29T17:41:42.629Z,50.00
2023-01-29T17:44:09.165Z,60.20
2023-01-29T17:46:35.722Z,36.15
2023-01-29T17:49:04.409Z,36.78
2023-01-29T17:51:31.018Z,53.13
2023-01-29T17:53:57.736Z,37.20
2023-01-29T17:56:29.472Z,36.08
2023-01-29T17:58:56.314Z,39.38
2023-01-29T18:01:22.920Z,92.35
2023-01-29T18:03:49.502Z,37.30
2023-01-29T18:06:27.115Z,75.13
2023-01-29T18:08:53.800Z,43.70
2023-01-29T18:11:20.337Z,41.83
2023-01-29T18:13:46.873Z,43.63
2023-01-29T18:16:13.514Z,61.00
2023-01-29T18:18:40.420Z,57.58
2023-01-29T18:21:07.974Z,38.75
2023-01-29T18:23:34.603Z,37.40
2023-01-29T18:26:01.268Z,31.52
2023-01-29T18:28:27.949Z,29.98
2023-01-29T18:30:54.673Z,31.60
2023-01-29T18:33:24.239Z,30.55
2023-01-29T18:35:50.993Z,30.52
2023-01-29T18:38:17.805Z,30.90
2023-01-29T18:40:44.427Z,33.17
2023-01-29T18:43:11.237Z,31.85
2023-01-29T18:45:37.887Z,33.05
2023-01-29T18:48:05.103Z,34.08
2023-01-29T18:50:31.709Z,36.67
2023-01-29T18:52:58.293Z,33.85
2023-01-29T18:55:26.560Z,34.78
2023-01-29T18:58:27.996Z,37.67
2023-01-29T19:00:40.981Z,37.28
2023-01-29T19:03:07.614Z,37.95
2023-01-29T19:05:34.343Z,32.80
2023-01-29T19:08:01.934Z,36.42
2023-01-29T19:10:28.688Z,32.80
2023-01-29T19:12:55.452Z,32.13
2023-01-29T19:15:22.809Z,30.65
2023-01-29T19:17:53.035Z,33.83
2023-01-29T19:20:20.116Z,33.33
2023-01-29T19:22:46.836Z,33.85
2023-01-29T19:25:13.727Z,33.85
2023-01-29T19:27:40.296Z,34.33
2023-01-29T19:30:07.981Z,32.15
2023-01-29T19:32:34.625Z,32.03
2023-01-29T19:35:01.182Z,31.95
2023-01-29T19:37:28.106Z,34.38
2023-01-29T19:39:54.738Z,35.00
2023-01-29T19:42:21.381Z,32.88
2023-01-29T19:44:48.125Z,33.78
2023-01-29T19:47:15.044Z,33.80
2023-01-29T19:49:41.816Z,33.67
2023-01-29T19:52:14.744Z,32.08
2023-01-29T19:54:46.122Z,32.55
2023-01-29T19:57:12.828Z,33.05
2023-01-29T19:59:40.667Z,32.78
2023-01-29T20:02:07.322Z,32.80
2023-01-29T20:04:33.881Z,33.45
2023-01-29T20:07:00.446Z,31.02
2023-01-29T20:09:29.348Z,31.90
2023-01-29T20:11:55.938Z,30.70
2023-01-29T20:14:22.633Z,31.83
2023-01-29T20:16:49.155Z,31.70
2023-01-29T20:19:15.869Z,30.38
2023-01-29T20:21:45.270Z,30.95
2023-01-29T20:24:13.040Z,30.77
2023-01-29T20:26:39.680Z,28.85
2023-01-29T20:29:06.551Z,30.63
2023-01-29T20:31:33.395Z,30.55
2023-01-29T20:34:00.083Z,36.13
2023-01-29T20:36:26.690Z,34.78
2023-01-29T20:38:53.358Z,33.45
2023-01-29T20:41:19.968Z,32.15
2023-01-29T20:43:47.294Z,33.05
2023-01-29T20:46:14.153Z,31.50
2023-01-29T20:48:42.090Z,32.60
2023-01-29T20:51:13.012Z,43.42
2023-01-29T20:53:41.077Z,30.73
2023-01-29T20:56:08.306Z,31.52
2023-01-29T20:58:36.057Z,33.05
2023-01-29T21:01:08.268Z,29.52
2023-01-29T21:03:35.145Z,31.77
2023-01-29T21:06:01.707Z,35.55
2023-01-29T21:08:28.351Z,37.63
2023-01-29T21:10:54.996Z,33.20
2023-01-29T21:13:21.670Z,30.73
2023-01-29T21:15:50.076Z,31.17
2023-01-29T21:18:16.943Z,28.83
2023-01-29T21:20:45.019Z,29.17
2023-01-29T21:23:11.619Z,27.35
2023-01-29T21:25:38.745Z,27.27
2023-01-29T21:28:06.182Z,27.75
2023-01-29T21:30:33.853Z,27.42
2023-01-29T21:33:00.486Z,27.27
2023-01-29T21:35:27.381Z,27.17
2023-01-29T21:37:53.910Z,27.33
2023-01-29T21:40:25.305Z,29.33
2023-01-29T21:43:10.685Z,26.85
2023-01-29T21:45:41.407Z,27.40
2023-01-29T21:48:09.620Z,27.35
2023-01-29T21:50:36.447Z,29.13
2023-01-29T21:53:03.168Z,26.70
2023-01-29T21:55:29.949Z,27.00
2023-01-29T21:57:56.594Z,27.63
2023-01-29T22:00:23.216Z,26.15
2023-01-29T22:02:51.220Z,27.90
2023-01-29T22:05:19.799Z,27.13
2023-01-29T22:07:47.897Z,27.90
2023-01-29T22:10:16.281Z,27.20
2023-01-29T22:12:44.514Z,27.48
2023-01-29T22:15:11.619Z,27.52
2023-01-29T22:17:41.185Z,27.55
2023-01-29T22:20:12.573Z,27.25
2023-01-29T22:22:39.280Z,28.60
2023-01-29T22:25:06.562Z,27.48
2023-01-29T22:27:33.919Z,27.98
2023-01-29T22:30:00.535Z,25.50
2023-01-29T22:32:27.366Z,25.75
2023-01-29T22:34:54.106Z,26.20
2023-01-29T22:37:20.677Z,26.15
2023-01-29T22:39:47.251Z,26.38
2023-01-29T22:42:13.863Z,23.52
2023-01-29T22:44:40.494Z,25.73
2023-01-29T22:47:07.186Z,24.48
2023-01-29T22:49:33.813Z,24.88
2023-01-29T22:52:12.650Z,24.73
2023-01-29T22:54:41.249Z,24.38
2023-01-29T22:57:10.606Z,25.58
2023-01-29T22:59:37.735Z,26.25
2023-01-29T23:02:04.927Z,25.33
2023-01-29T23:04:31.586Z,24.05
2023-01-29T23:06:58.322Z,24.10
2023-01-29T23:09:25.110Z,24.98
2023-01-29T23:11:51.733Z,23.95
2023-01-29T23:14:18.658Z,24.08
2023-01-29T23:16:45.274Z,24.15
2023-01-29T23:19:12.264Z,23.48
2023-01-29T23:21:39.765Z,23.92
2023-01-29T23:24:07.964Z,24.95
2023-01-29T23:26:53.333Z,23.67
2023-01-29T23:29:20.238Z,21.30
2023-01-29T23:31:47.099Z,23.45
2023-01-29T23:34:14.272Z,23.48
2023-01-29T23:36:41.687Z,23.33
2023-01-29T23:39:08.346Z,22.92
2023-01-29T23:41:35.956Z,23.00
2023-01-29T23:44:03.197Z,23.92
2023-01-29T23:46:30.136Z,21.55
2023-01-29T23:48:57.051Z,23.50
2023-01-29T23:51:23.766Z,20.88
2023-01-29T23:53:50.373Z,22.63
2023-01-29T23:56:17.065Z,21.75
2023-01-29T23:58:44.772Z,22.88
